sensor_id;sensor_type;location;lat;lon;timestamp;pressure;altitude;pressure_sealevel;temperature;humidity
32875;BME280;40468;42.128;24.750;2023-05-11T00:00:35;100176.44;;;10.18;71.03
32875;BME280;40468;42.128;24.750;2023-05-11T00:02:07;100174.84;;;10.14;71.21
32875;BME280;40468;42.128;24.750;2023-05-11T00:03:39;100180.03;;;10.14;71.36
32875;BME280;40468;42.128;24.750;2023-05-11T00:05:12;100172.53;;;10.07;71.47
32875;BME280;40468;42.128;24.750;2023-05-11T00:06:43;100184.41;;;10.14;71.55
32875;BME280;40468;42.128;24.750;2023-05-11T00:08:15;100187.97;;;10.11;71.86
32875;BME280;40468;42.128;24.750;2023-05-11T00:09:47;100190.69;;;10.08;72.14
32875;BME280;40468;42.128;24.750;2023-05-11T00:11:19;100183.06;;;10.03;72.17
32875;BME280;40468;42.128;24.750;2023-05-11T00:12:52;100185.72;;;10.02;72.30
32875;BME280;40468;42.128;24.750;2023-05-11T00:14:24;100188.44;;;9.99;72.33
32875;BME280;40468;42.128;24.750;2023-05-11T00:15:56;100185.81;;;9.99;72.59
32875;BME280;40468;42.128;24.750;2023-05-11T00:17:28;100182.56;;;9.94;72.74
32875;BME280;40468;42.128;24.750;2023-05-11T00:19:00;100190.25;;;9.97;72.91
32875;BME280;40468;42.128;24.750;2023-05-11T00:20:32;100187.78;;;9.94;73.06
32875;BME280;40468;42.128;24.750;2023-05-11T00:22:03;100188.03;;;9.86;72.90
32875;BME280;40468;42.128;24.750;2023-05-11T00:23:35;100201.88;;;9.87;73.40
32875;BME280;40468;42.128;24.750;2023-05-11T00:25:06;100190.91;;;9.78;73.27
32875;BME280;40468;42.128;24.750;2023-05-11T00:26:38;100183.31;;;9.72;73.97
32875;BME280;40468;42.128;24.750;2023-05-11T00:28:11;100199.66;;;9.76;73.61
32875;BME280;40468;42.128;24.750;2023-05-11T00:29:43;100197.22;;;9.71;74.17
32875;BME280;40468;42.128;24.750;2023-05-11T00:31:15;100184.66;;;9.59;74.18
32875;BME280;40468;42.128;24.750;2023-05-11T00:32:47;100191.56;;;9.60;74.48
32875;BME280;40468;42.128;24.750;2023-05-11T00:34:21;100198.50;;;9.60;74.84
32875;BME280;40468;42.128;24.750;2023-05-11T00:35:52;100201.09;;;9.60;74.74
32875;BME280;40468;42.128;24.750;2023-05-11T00:37:24;100202.91;;;9.57;74.85
32875;BME280;40468;42.128;24.750;2023-05-11T00:38:55;100196.06;;;9.55;74.83
32875;BME280;40468;42.128;24.750;2023-05-11T00:40:27;100201.31;;;9.53;75.29
32875;BME280;40468;42.128;24.750;2023-05-11T00:41:58;100199.63;;;9.52;75.06
32875;BME280;40468;42.128;24.750;2023-05-11T00:43:31;100198.94;;;9.47;75.55
32875;BME280;40468;42.128;24.750;2023-05-11T00:45:04;100206.66;;;9.49;75.51
32875;BME280;40468;42.128;24.750;2023-05-11T00:46:36;100187.94;;;9.39;75.88
32875;BME280;40468;42.128;24.750;2023-05-11T00:48:08;100199.16;;;9.41;76.08
32875;BME280;40468;42.128;24.750;2023-05-11T00:49:40;100201.75;;;9.41;76.03
32875;BME280;40468;42.128;24.750;2023-05-11T00:51:11;100203.44;;;9.42;76.21
32875;BME280;40468;42.128;24.750;2023-05-11T00:52:44;100202.53;;;9.43;75.93
32875;BME280;40468;42.128;24.750;2023-05-11T00:54:16;100208.63;;;9.42;76.23
32875;BME280;40468;42.128;24.750;2023-05-11T00:55:48;100195.81;;;9.38;76.09
32875;BME280;40468;42.128;24.750;2023-05-11T00:57:20;100211.22;;;9.42;75.96
32875;BME280;40468;42.128;24.750;2023-05-11T00:58:53;100204.44;;;9.38;76.05
32875;BME280;40468;42.128;24.750;2023-05-11T01:00:25;100196.69;;;9.37;76.17
32875;BME280;40468;42.128;24.750;2023-05-11T01:01:57;100200.03;;;9.40;76.29
32875;BME280;40468;42.128;24.750;2023-05-11T01:03:28;100192.34;;;9.37;75.87
32875;BME280;40468;42.128;24.750;2023-05-11T01:05:00;100198.41;;;9.38;76.11
32875;BME280;40468;42.128;24.750;2023-05-11T01:06:36;100194.91;;;9.39;76.58
32875;BME280;40468;42.128;24.750;2023-05-11T01:08:17;100202.69;;;9.39;76.62
32875;BME280;40468;42.128;24.750;2023-05-11T01:09:55;100198.47;;;9.34;76.65
32875;BME280;40468;42.128;24.750;2023-05-11T01:11:34;100194.25;;;9.32;77.02
32875;BME280;40468;42.128;24.750;2023-05-11T01:13:14;100141.00;;;8.92;76.93
32875;BME280;40468;42.128;24.750;2023-05-11T01:14:54;100163.94;;;9.06;77.08
32875;BME280;40468;42.128;24.750;2023-05-11T01:16:30;100203.13;;;9.26;77.33
32875;BME280;40468;42.128;24.750;2023-05-11T01:18:10;100197.25;;;9.20;77.40
32875;BME280;40468;42.128;24.750;2023-05-11T01:19:52;100216.22;;;9.23;76.96
32875;BME280;40468;42.128;24.750;2023-05-11T01:21:29;100210.19;;;9.21;77.24
32875;BME280;40468;42.128;24.750;2023-05-11T01:25:26;100209.50;;;9.16;77.78
32875;BME280;40468;42.128;24.750;2023-05-11T01:27:30;100211.41;;;9.11;77.80
32875;BME280;40468;42.128;24.750;2023-05-11T01:31:08;100213.09;;;9.12;77.88
32875;BME280;40468;42.128;24.750;2023-05-11T01:32:41;100198.59;;;9.05;77.91
32875;BME280;40468;42.128;24.750;2023-05-11T01:34:16;100214.78;;;9.13;78.28
32875;BME280;40468;42.128;24.750;2023-05-11T01:35:52;100195.25;;;9.01;78.17
32875;BME280;40468;42.128;24.750;2023-05-11T01:37:27;100208.00;;;9.09;78.33
32875;BME280;40468;42.128;24.750;2023-05-11T01:39:04;100212.19;;;9.13;78.40
32875;BME280;40468;42.128;24.750;2023-05-11T01:40:40;100216.44;;;9.16;78.22
32875;BME280;40468;42.128;24.750;2023-05-11T01:42:13;100156.09;;;8.81;78.21
32875;BME280;40468;42.128;24.750;2023-05-11T01:43:53;100158.66;;;8.82;78.42
32875;BME280;40468;42.128;24.750;2023-05-11T01:45:27;100212.16;;;9.15;78.24
32875;BME280;40468;42.128;24.750;2023-05-11T01:47:02;100211.22;;;9.17;78.38
32875;BME280;40468;42.128;24.750;2023-05-11T01:48:38;100195.06;;;9.07;78.25
32875;BME280;40468;42.128;24.750;2023-05-11T01:50:10;100209.41;;;9.19;78.58
32875;BME280;40468;42.128;24.750;2023-05-11T01:51:43;100204.19;;;9.19;78.38
32875;BME280;40468;42.128;24.750;2023-05-11T01:53:20;100210.25;;;9.20;78.55
32875;BME280;40468;42.128;24.750;2023-05-11T01:54:54;100205.09;;;9.18;78.59
32875;BME280;40468;42.128;24.750;2023-05-11T01:56:26;100206.78;;;9.19;78.52
32875;BME280;40468;42.128;24.750;2023-05-11T01:57:59;100207.00;;;9.13;78.45
32875;BME280;40468;42.128;24.750;2023-05-11T01:59:31;100208.72;;;9.14;78.30
32875;BME280;40468;42.128;24.750;2023-05-11T02:01:04;100204.41;;;9.13;78.62
32875;BME280;40468;42.128;24.750;2023-05-11T02:02:38;100207.69;;;9.18;78.38
32875;BME280;40468;42.128;24.750;2023-05-11T02:04:11;100210.25;;;9.20;78.42
32875;BME280;40468;42.128;24.750;2023-05-11T02:05:46;100205.81;;;9.23;78.84
32875;BME280;40468;42.128;24.750;2023-05-11T02:07:19;100196.41;;;9.19;78.58
32875;BME280;40468;42.128;24.750;2023-05-11T02:08:53;100205.00;;;9.21;78.70
32875;BME280;40468;42.128;24.750;2023-05-11T02:10:26;100203.25;;;9.22;78.60
32875;BME280;40468;42.128;24.750;2023-05-11T02:11:59;100202.41;;;9.21;78.59
32875;BME280;40468;42.128;24.750;2023-05-11T02:13:32;100204.25;;;9.18;78.45
32875;BME280;40468;42.128;24.750;2023-05-11T02:15:07;100199.94;;;9.17;78.81
32875;BME280;40468;42.128;24.750;2023-05-11T02:16:40;100203.25;;;9.22;78.76
32875;BME280;40468;42.128;24.750;2023-05-11T02:18:14;100188.78;;;9.15;78.51
32875;BME280;40468;42.128;24.750;2023-05-11T02:19:47;100203.22;;;9.23;78.57
32875;BME280;40468;42.128;24.750;2023-05-11T02:21:20;100189.63;;;9.15;78.62
32875;BME280;40468;42.128;24.750;2023-05-11T02:22:52;100207.50;;;9.24;78.64
32875;BME280;40468;42.128;24.750;2023-05-11T02:24:26;100204.91;;;9.24;78.70
32875;BME280;40468;42.128;24.750;2023-05-11T02:25:59;100205.81;;;9.23;79.19
32875;BME280;40468;42.128;24.750;2023-05-11T02:27:33;100200.63;;;9.23;78.81
32875;BME280;40468;42.128;24.750;2023-05-11T02:29:05;100197.22;;;9.21;79.03
32875;BME280;40468;42.128;24.750;2023-05-11T02:30:43;100198.84;;;9.24;79.04
32875;BME280;40468;42.128;24.750;2023-05-11T02:32:17;100202.25;;;9.26;78.81
32875;BME280;40468;42.128;24.750;2023-05-11T02:33:54;100203.03;;;9.28;78.70
32875;BME280;40468;42.128;24.750;2023-05-11T02:35:28;100183.41;;;9.19;78.81
32875;BME280;40468;42.128;24.750;2023-05-11T02:37:06;100203.00;;;9.29;78.71
32875;BME280;40468;42.128;24.750;2023-05-11T02:38:40;100205.75;;;9.25;79.00
32875;BME280;40468;42.128;24.750;2023-05-11T02:40:17;100207.41;;;9.27;78.81
32875;BME280;40468;42.128;24.750;2023-05-11T02:41:54;100196.28;;;9.22;78.52
32875;BME280;40468;42.128;24.750;2023-05-11T02:43:31;100194.50;;;9.24;78.82
32875;BME280;40468;42.128;24.750;2023-05-11T02:45:06;100199.69;;;9.24;78.54
32875;BME280;40468;42.128;24.750;2023-05-11T02:46:39;100198.13;;;9.20;78.80
32875;BME280;40468;42.128;24.750;2023-05-11T02:48:20;100206.66;;;9.24;78.56
32875;BME280;40468;42.128;24.750;2023-05-11T02:49:56;100205.75;;;9.25;78.66
32875;BME280;40468;42.128;24.750;2023-05-11T02:51:33;100209.19;;;9.25;78.82
32875;BME280;40468;42.128;24.750;2023-05-11T02:53:09;100207.50;;;9.24;78.61
32875;BME280;40468;42.128;24.750;2023-05-11T02:54:42;100208.25;;;9.28;78.70
32875;BME280;40468;42.128;24.750;2023-05-11T02:56:14;100211.69;;;9.28;78.82
32875;BME280;40468;42.128;24.750;2023-05-11T02:57:47;100216.88;;;9.28;78.69
32875;BME280;40468;42.128;24.750;2023-05-11T02:59:19;100216.03;;;9.28;78.61
32875;BME280;40468;42.128;24.750;2023-05-11T03:00:52;100224.66;;;9.30;78.79
32875;BME280;40468;42.128;24.750;2023-05-11T03:02:24;100219.69;;;9.22;78.53
32875;BME280;40468;42.128;24.750;2023-05-11T03:03:56;100227.38;;;9.25;78.91
32875;BME280;40468;42.128;24.750;2023-05-11T03:05:29;100227.44;;;9.24;79.27
32875;BME280;40468;42.128;24.750;2023-05-11T03:07:01;100225.78;;;9.21;78.98
32875;BME280;40468;42.128;24.750;2023-05-11T03:08:33;100227.53;;;9.21;79.17
32875;BME280;40468;42.128;24.750;2023-05-11T03:10:07;100222.50;;;9.16;79.28
32875;BME280;40468;42.128;24.750;2023-05-11T03:11:38;100188.56;;;8.94;79.28
32875;BME280;40468;42.128;24.750;2023-05-11T03:13:11;100220.69;;;9.18;79.49
32875;BME280;40468;42.128;24.750;2023-05-11T03:14:43;100223.28;;;9.18;79.47
32875;BME280;40468;42.128;24.750;2023-05-11T03:16:17;100226.72;;;9.20;79.14
32875;BME280;40468;42.128;24.750;2023-05-11T03:17:49;100228.53;;;9.17;79.12
32875;BME280;40468;42.128;24.750;2023-05-11T03:19:22;100214.06;;;9.09;79.18
32875;BME280;40468;42.128;24.750;2023-05-11T03:20:56;100219.28;;;9.08;79.40
32875;BME280;40468;42.128;24.750;2023-05-11T03:22:30;100220.25;;;9.05;79.33
32875;BME280;40468;42.128;24.750;2023-05-11T03:24:04;100217.78;;;9.01;79.59
32875;BME280;40468;42.128;24.750;2023-05-11T03:25:37;100205.84;;;8.95;79.54
32875;BME280;40468;42.128;24.750;2023-05-11T03:27:10;100222.06;;;9.02;79.92
32875;BME280;40468;42.128;24.750;2023-05-11T03:28:42;100228.19;;;9.01;79.60
32875;BME280;40468;42.128;24.750;2023-05-11T03:30:16;100229.94;;;9.00;79.90
32875;BME280;40468;42.128;24.750;2023-05-11T03:31:48;100227.47;;;8.96;79.92
32875;BME280;40468;42.128;24.750;2023-05-11T03:33:20;100221.63;;;8.89;79.86
32875;BME280;40468;42.128;24.750;2023-05-11T03:34:52;100215.63;;;8.87;79.79
32875;BME280;40468;42.128;24.750;2023-05-11T03:36:26;100238.81;;;8.93;80.05
32875;BME280;40468;42.128;24.750;2023-05-11T03:37:59;100224.38;;;8.84;80.29
32875;BME280;40468;42.128;24.750;2023-05-11T03:39:33;100232.97;;;8.86;80.43
32875;BME280;40468;42.128;24.750;2023-05-11T03:41:06;100238.16;;;8.86;80.33
32875;BME280;40468;42.128;24.750;2023-05-11T03:42:38;100236.38;;;8.88;80.70
32875;BME280;40468;42.128;24.750;2023-05-11T03:44:13;100232.84;;;8.89;80.48
32875;BME280;40468;42.128;24.750;2023-05-11T03:45:45;100230.34;;;8.86;80.47
32875;BME280;40468;42.128;24.750;2023-05-11T03:47:19;100231.19;;;8.87;80.94
32875;BME280;40468;42.128;24.750;2023-05-11T03:48:52;100237.22;;;8.89;80.92
32875;BME280;40468;42.128;24.750;2023-05-11T03:50:26;100211.53;;;8.80;80.76
32875;BME280;40468;42.128;24.750;2023-05-11T03:51:58;100235.34;;;8.93;81.03
32875;BME280;40468;42.128;24.750;2023-05-11T03:53:30;100231.91;;;8.92;80.93
32875;BME280;40468;42.128;24.750;2023-05-11T03:55:03;100218.41;;;8.81;80.96
32875;BME280;40468;42.128;24.750;2023-05-11T03:56:35;100227.63;;;8.91;81.05
32875;BME280;40468;42.128;24.750;2023-05-11T03:58:08;100204.75;;;8.76;80.83
32875;BME280;40468;42.128;24.750;2023-05-11T03:59:40;100233.59;;;8.93;80.93
32875;BME280;40468;42.128;24.750;2023-05-11T04:01:12;100232.72;;;8.94;80.95
32875;BME280;40468;42.128;24.750;2023-05-11T04:02:44;100237.84;;;8.96;80.85
32875;BME280;40468;42.128;24.750;2023-05-11T04:04:16;100230.31;;;8.88;80.49
32875;BME280;40468;42.128;24.750;2023-05-11T04:05:48;100236.38;;;8.88;80.85
32875;BME280;40468;42.128;24.750;2023-05-11T04:07:20;100232.94;;;8.88;81.10
32875;BME280;40468;42.128;24.750;2023-05-11T04:08:52;100228.81;;;8.81;81.15
32875;BME280;40468;42.128;24.750;2023-05-11T04:10:23;100239.88;;;8.87;81.17
32875;BME280;40468;42.128;24.750;2023-05-11T04:11:55;100240.72;;;8.88;80.99
32875;BME280;40468;42.128;24.750;2023-05-11T04:13:27;100233.78;;;8.88;81.01
32875;BME280;40468;42.128;24.750;2023-05-11T04:14:59;100234.63;;;8.89;80.96
32875;BME280;40468;42.128;24.750;2023-05-11T04:16:31;100251.00;;;8.91;81.21
32875;BME280;40468;42.128;24.750;2023-05-11T04:18:03;100240.56;;;8.93;81.07
32875;BME280;40468;42.128;24.750;2023-05-11T04:19:35;100222.75;;;8.80;81.46
32875;BME280;40468;42.128;24.750;2023-05-11T04:21:07;100247.47;;;8.94;81.28
32875;BME280;40468;42.128;24.750;2023-05-11T04:22:39;100244.78;;;8.97;81.38
32875;BME280;40468;42.128;24.750;2023-05-11T04:24:11;100244.72;;;8.98;81.58
32875;BME280;40468;42.128;24.750;2023-05-11T04:25:43;100238.56;;;9.01;81.20
32875;BME280;40468;42.128;24.750;2023-05-11T04:27:15;100242.75;;;9.05;81.19
32875;BME280;40468;42.128;24.750;2023-05-11T04:28:47;100240.13;;;9.06;81.08
32875;BME280;40468;42.128;24.750;2023-05-11T04:30:19;100244.38;;;9.09;81.33
32875;BME280;40468;42.128;24.750;2023-05-11T04:31:51;100249.47;;;9.12;81.07
32875;BME280;40468;42.128;24.750;2023-05-11T04:33:23;100236.72;;;9.04;81.00
32875;BME280;40468;42.128;24.750;2023-05-11T04:34:55;100255.66;;;9.08;81.03
32875;BME280;40468;42.128;24.750;2023-05-11T04:36:27;100256.56;;;9.07;81.11
32875;BME280;40468;42.128;24.750;2023-05-11T04:38:00;100253.06;;;9.08;80.84
32875;BME280;40468;42.128;24.750;2023-05-11T04:39:32;100243.56;;;9.07;80.48
32875;BME280;40468;42.128;24.750;2023-05-11T04:41:05;100216.31;;;8.94;80.68
32875;BME280;40468;42.128;24.750;2023-05-11T04:42:42;100249.38;;;9.15;80.58
32875;BME280;40468;42.128;24.750;2023-05-11T04:44:14;100259.56;;;9.21;80.51
32875;BME280;40468;42.128;24.750;2023-05-11T04:45:48;100250.88;;;9.22;80.42
32875;BME280;40468;42.128;24.750;2023-05-11T04:47:20;100245.56;;;9.25;80.29
32875;BME280;40468;42.128;24.750;2023-05-11T04:48:52;100241.16;;;9.29;80.70
32875;BME280;40468;42.128;24.750;2023-05-11T04:50:24;100239.19;;;9.36;80.55
32875;BME280;40468;42.128;24.750;2023-05-11T04:51:56;100243.38;;;9.40;80.32
32875;BME280;40468;42.128;24.750;2023-05-11T04:53:30;100241.47;;;9.45;80.21
32875;BME280;40468;42.128;24.750;2023-05-11T04:55:03;100250.88;;;9.49;79.81
32875;BME280;40468;42.128;24.750;2023-05-11T04:56:35;100246.50;;;9.49;79.95
32875;BME280;40468;42.128;24.750;2023-05-11T04:58:10;100249.97;;;9.50;79.45
32875;BME280;40468;42.128;24.750;2023-05-11T04:59:41;100256.06;;;9.49;79.50
32875;BME280;40468;42.128;24.750;2023-05-11T05:01:14;100248.38;;;9.46;79.34
32875;BME280;40468;42.128;24.750;2023-05-11T05:02:46;100252.72;;;9.45;79.42
32875;BME280;40468;42.128;24.750;2023-05-11T05:04:20;100256.16;;;9.46;79.11
32875;BME280;40468;42.128;24.750;2023-05-11T05:05:52;100252.69;;;9.47;79.22
32875;BME280;40468;42.128;24.750;2023-05-11T05:07:24;100255.22;;;9.48;79.70
32875;BME280;40468;42.128;24.750;2023-05-11T05:08:57;100262.91;;;9.51;79.49
32875;BME280;40468;42.128;24.750;2023-05-11T05:10:29;100255.00;;;9.54;79.62
32875;BME280;40468;42.128;24.750;2023-05-11T05:12:00;100254.16;;;9.54;79.30
32875;BME280;40468;42.128;24.750;2023-05-11T05:13:32;100265.47;;;9.53;79.46
32875;BME280;40468;42.128;24.750;2023-05-11T05:15:06;100253.25;;;9.55;79.21
32875;BME280;40468;42.128;24.750;2023-05-11T05:16:38;100256.72;;;9.55;79.18
32875;BME280;40468;42.128;24.750;2023-05-11T05:18:10;100248.94;;;9.55;79.12
32875;BME280;40468;42.128;24.750;2023-05-11T05:19:42;100252.50;;;9.51;79.10
32875;BME280;40468;42.128;24.750;2023-05-11T05:21:14;100255.72;;;9.60;78.76
32875;BME280;40468;42.128;24.750;2023-05-11T05:22:46;100256.56;;;9.60;79.08
32875;BME280;40468;42.128;24.750;2023-05-11T05:24:19;100250.41;;;9.63;78.91
32875;BME280;40468;42.128;24.750;2023-05-11T05:25:51;100256.34;;;9.66;78.67
32875;BME280;40468;42.128;24.750;2023-05-11T05:27:24;100252.88;;;9.67;78.59
32875;BME280;40468;42.128;24.750;2023-05-11T05:28:56;100258.81;;;9.71;78.34
32875;BME280;40468;42.128;24.750;2023-05-11T05:30:27;100250.31;;;9.66;78.40
32875;BME280;40468;42.128;24.750;2023-05-11T05:31:59;100263.72;;;9.78;78.44
32875;BME280;40468;42.128;24.750;2023-05-11T05:33:30;100255.66;;;9.86;77.92
32875;BME280;40468;42.128;24.750;2023-05-11T05:35:03;100259.69;;;9.95;77.89
32875;BME280;40468;42.128;24.750;2023-05-11T05:36:35;100266.47;;;9.99;77.78
32875;BME280;40468;42.128;24.750;2023-05-11T05:38:08;100261.06;;;10.05;77.64
32875;BME280;40468;42.128;24.750;2023-05-11T05:39:42;100267.69;;;10.14;77.23
32875;BME280;40468;42.128;24.750;2023-05-11T05:41:14;100268.53;;;10.14;77.47
32875;BME280;40468;42.128;24.750;2023-05-11T05:42:46;100268.28;;;10.22;77.24
32875;BME280;40468;42.128;24.750;2023-05-11T05:44:18;100274.00;;;10.32;77.37
32875;BME280;40468;42.128;24.750;2023-05-11T05:45:49;100276.38;;;10.38;76.81
32875;BME280;40468;42.128;24.750;2023-05-11T05:47:21;100284.91;;;10.43;76.42
32875;BME280;40468;42.128;24.750;2023-05-11T05:48:53;100284.03;;;10.42;75.64
32875;BME280;40468;42.128;24.750;2023-05-11T05:50:26;100262.59;;;10.36;75.52
32875;BME280;40468;42.128;24.750;2023-05-11T05:51:58;100271.84;;;10.44;75.56
32875;BME280;40468;42.128;24.750;2023-05-11T05:53:30;100266.75;;;10.41;75.60
32875;BME280;40468;42.128;24.750;2023-05-11T05:55:05;100272.31;;;10.54;75.54
32875;BME280;40468;42.128;24.750;2023-05-11T05:56:37;100273.78;;;10.61;75.26
32875;BME280;40468;42.128;24.750;2023-05-11T05:58:10;100257.50;;;10.56;75.12
32875;BME280;40468;42.128;24.750;2023-05-11T05:59:42;100275.19;;;10.70;74.78
32875;BME280;40468;42.128;24.750;2023-05-11T06:01:14;100270.72;;;10.74;74.46
32875;BME280;40468;42.128;24.750;2023-05-11T06:02:46;100281.94;;;10.76;73.73
32875;BME280;40468;42.128;24.750;2023-05-11T06:04:18;100277.56;;;10.76;73.65
32875;BME280;40468;42.128;24.750;2023-05-11T06:05:50;100283.53;;;10.80;73.17
32875;BME280;40468;42.128;24.750;2023-05-11T06:07:22;100280.81;;;10.83;73.17
32875;BME280;40468;42.128;24.750;2023-05-11T06:08:54;100279.94;;;10.82;72.79
32875;BME280;40468;42.128;24.750;2023-05-11T06:10:28;100277.19;;;10.85;72.46
32875;BME280;40468;42.128;24.750;2023-05-11T06:12:00;100275.34;;;10.89;72.63
32875;BME280;40468;42.128;24.750;2023-05-11T06:13:32;100272.75;;;10.89;72.15
32875;BME280;40468;42.128;24.750;2023-05-11T06:15:05;100288.91;;;10.97;72.11
32875;BME280;40468;42.128;24.750;2023-05-11T06:16:37;100276.44;;;11.05;72.05
32875;BME280;40468;42.128;24.750;2023-05-11T06:18:09;100275.47;;;11.08;71.91
32875;BME280;40468;42.128;24.750;2023-05-11T06:19:41;100274.66;;;11.06;71.44
32875;BME280;40468;42.128;24.750;2023-05-11T06:21:13;100276.31;;;11.08;71.30
32875;BME280;40468;42.128;24.750;2023-05-11T06:22:45;100280.56;;;11.11;70.81
32875;BME280;40468;42.128;24.750;2023-05-11T06:24:17;100278.53;;;11.18;71.07
32875;BME280;40468;42.128;24.750;2023-05-11T06:25:51;100269.72;;;11.22;70.54
32875;BME280;40468;42.128;24.750;2023-05-11T06:27:23;100278.00;;;11.31;70.56
32875;BME280;40468;42.128;24.750;2023-05-11T06:28:56;100276.31;;;11.30;70.48
32875;BME280;40468;42.128;24.750;2023-05-11T06:30:28;100279.78;;;11.31;70.01
32875;BME280;40468;42.128;24.750;2023-05-11T06:32:00;100283.28;;;11.30;69.64
32875;BME280;40468;42.128;24.750;2023-05-11T06:33:35;100260.13;;;11.22;68.91
32875;BME280;40468;42.128;24.750;2023-05-11T06:35:07;100275.16;;;11.37;69.12
32875;BME280;40468;42.128;24.750;2023-05-11T06:36:39;100247.00;;;11.24;68.91
32875;BME280;40468;42.128;24.750;2023-05-11T06:38:12;100282.78;;;11.42;68.36
32875;BME280;40468;42.128;24.750;2023-05-11T06:39:44;100262.06;;;11.39;68.06
32875;BME280;40468;42.128;24.750;2023-05-11T06:41:17;100273.34;;;11.39;68.07
32875;BME280;40468;42.128;24.750;2023-05-11T06:42:49;100275.09;;;11.39;68.43
32875;BME280;40468;42.128;24.750;2023-05-11T06:44:21;100273.06;;;11.46;68.26
32875;BME280;40468;42.128;24.750;2023-05-11T06:45:53;100271.06;;;11.52;68.38
32875;BME280;40468;42.128;24.750;2023-05-11T06:47:25;100275.97;;;11.60;67.98
32875;BME280;40468;42.128;24.750;2023-05-11T06:48:57;100277.47;;;11.66;67.74
32875;BME280;40468;42.128;24.750;2023-05-11T06:50:30;100270.28;;;11.71;67.38
32875;BME280;40468;42.128;24.750;2023-05-11T06:52:02;100252.22;;;11.66;67.51
32875;BME280;40468;42.128;24.750;2023-05-11T06:53:35;100272.28;;;11.86;67.57
32875;BME280;40468;42.128;24.750;2023-05-11T06:55:11;100278.84;;;11.95;67.12
32875;BME280;40468;42.128;24.750;2023-05-11T06:56:45;100276.06;;;11.99;66.10
32875;BME280;40468;42.128;24.750;2023-05-11T06:58:17;100276.84;;;12.01;66.02
32875;BME280;40468;42.128;24.750;2023-05-11T06:59:50;100272.91;;;12.12;65.94
32875;BME280;40468;42.128;24.750;2023-05-11T07:01:22;100277.84;;;12.18;65.25
32875;BME280;40468;42.128;24.750;2023-05-11T07:02:54;100270.94;;;12.17;64.84
32875;BME280;40468;42.128;24.750;2023-05-11T07:04:26;100283.78;;;12.21;64.56
32875;BME280;40468;42.128;24.750;2023-05-11T07:05:59;100266.28;;;12.23;64.15
32875;BME280;40468;42.128;24.750;2023-05-11T07:07:31;100258.97;;;12.32;63.76
32875;BME280;40468;42.128;24.750;2023-05-11T07:09:03;100264.47;;;12.44;63.69
32875;BME280;40468;42.128;24.750;2023-05-11T07:10:35;100273.53;;;12.56;63.33
32875;BME280;40468;42.128;24.750;2023-05-11T07:12:08;100257.84;;;12.56;63.11
32875;BME280;40468;42.128;24.750;2023-05-11T07:13:41;100261.00;;;12.63;62.75
32875;BME280;40468;42.128;24.750;2023-05-11T07:15:13;100264.28;;;12.68;62.79
32875;BME280;40468;42.128;24.750;2023-05-11T07:16:45;100258.16;;;12.69;62.66
32875;BME280;40468;42.128;24.750;2023-05-11T07:18:17;100252.41;;;12.61;62.45
32875;BME280;40468;42.128;24.750;2023-05-11T07:19:49;100267.44;;;12.74;62.32
32875;BME280;40468;42.128;24.750;2023-05-11T07:21:22;100261.38;;;12.74;62.23
32875;BME280;40468;42.128;24.750;2023-05-11T07:22:55;100266.16;;;12.83;62.27
32875;BME280;40468;42.128;24.750;2023-05-11T07:24:28;100273.81;;;12.88;62.26
32875;BME280;40468;42.128;24.750;2023-05-11T07:26:00;100270.06;;;12.93;62.07
32875;BME280;40468;42.128;24.750;2023-05-11T07:27:39;100252.88;;;12.88;61.64
32875;BME280;40468;42.128;24.750;2023-05-11T07:29:11;100277.13;;;12.91;61.73
32875;BME280;40468;42.128;24.750;2023-05-11T07:30:43;100272.81;;;12.90;61.00
32875;BME280;40468;42.128;24.750;2023-05-11T07:32:15;100270.06;;;12.93;60.90
32875;BME280;40468;42.128;24.750;2023-05-11T07:33:48;100273.44;;;12.95;60.41
32875;BME280;40468;42.128;24.750;2023-05-11T07:35:20;100261.97;;;12.98;60.10
32875;BME280;40468;42.128;24.750;2023-05-11T07:36:52;100263.44;;;13.04;59.88
32875;BME280;40468;42.128;24.750;2023-05-11T07:38:27;100259.00;;;13.06;59.55
32875;BME280;40468;42.128;24.750;2023-05-11T07:39:59;100277.00;;;13.12;58.75
32875;BME280;40468;42.128;24.750;2023-05-11T07:41:31;100266.63;;;13.10;58.99
32875;BME280;40468;42.128;24.750;2023-05-11T07:43:05;100260.25;;;13.16;58.82
32875;BME280;40468;42.128;24.750;2023-05-11T07:44:37;100271.16;;;13.26;58.69
32875;BME280;40468;42.128;24.750;2023-05-11T07:46:09;100264.06;;;13.28;58.43
32875;BME280;40468;42.128;24.750;2023-05-11T07:47:41;100261.16;;;13.34;58.68
32875;BME280;40468;42.128;24.750;2023-05-11T07:49:14;100260.16;;;13.36;58.55
32875;BME280;40468;42.128;24.750;2023-05-11T07:50:46;100259.94;;;13.41;58.71
32875;BME280;40468;42.128;24.750;2023-05-11T07:52:19;100252.63;;;13.48;58.64
32875;BME280;40468;42.128;24.750;2023-05-11T07:53:51;100238.91;;;13.42;57.89
32875;BME280;40468;42.128;24.750;2023-05-11T07:55:23;100254.19;;;13.52;57.98
32875;BME280;40468;42.128;24.750;2023-05-11T07:56:55;100218.53;;;13.32;57.72
32875;BME280;40468;42.128;24.750;2023-05-11T07:58:29;100260.63;;;13.45;57.96
32875;BME280;40468;42.128;24.750;2023-05-11T08:00:02;100249.53;;;13.39;58.16
32875;BME280;40468;42.128;24.750;2023-05-11T08:01:37;100215.03;;;13.14;58.55
32875;BME280;40468;42.128;24.750;2023-05-11T08:03:09;100248.06;;;13.34;58.60
32875;BME280;40468;42.128;24.750;2023-05-11T08:04:41;100253.78;;;13.42;58.74
32875;BME280;40468;42.128;24.750;2023-05-11T08:06:13;100258.69;;;13.48;58.66
32875;BME280;40468;42.128;24.750;2023-05-11T08:07:45;100258.63;;;13.50;58.90